Time;durP1;ratioP1;P1;durP2;ratioP2;P2;SDS_P1;SDS_P2;PMS_P1;PMS_P2;Temp;Humidity;BMP_temperature;BMP_pressure;BME280_temperature;BME280_humidity;BME280_pressure;Samples;Min_cycle;Max_cycle;Signal;HPM_P1;HPM_P2
2022/04/20 00:00:44;;;;;;;5.03;2.10;;;;;;;;;;4985850;28;20023;-68
2022/04/20 00:03:29;;;;;;;3.65;2.33;;;;;;;;;;4994853;28;20037;-67
2022/04/20 00:06:14;;;;;;;5.00;2.78;;;;;;;;;;4973533;28;20034;-67
2022/04/20 00:08:59;;;;;;;2.85;2.10;;;;;;;;;;4986440;28;20034;-66
2022/04/20 00:11:46;;;;;;;3.10;2.10;;;;;;;;;;4984595;28;20042;-67
2022/04/20 00:14:32;;;;;;;4.38;2.33;;;;;;;;;;4997537;28;20022;-66
2022/04/20 00:17:17;;;;;;;4.90;2.70;;;;;;;;;;4981991;28;20064;-67
2022/04/20 00:20:02;;;;;;;4.30;2.40;;;;;;;;;;4989819;28;20042;-69
2022/04/20 00:22:48;;;;;;;5.90;2.72;;;;;;;;;;4984528;28;20038;-70
2022/04/20 00:25:33;;;;;;;7.47;3.00;;;;;;;;;;4979430;28;20749;-69
2022/04/20 00:28:18;;;;;;;4.00;2.60;;;;;;;;;;4983390;28;20467;-70
2022/04/20 00:31:03;;;;;;;3.97;2.60;;;;;;;;;;4993233;28;20081;-69
2022/04/20 00:33:49;;;;;;;4.85;2.65;;;;;;;;;;4985319;28;20030;-71
2022/04/20 00:36:34;;;;;;;6.00;2.90;;;;;;;;;;4993872;28;20413;-69
2022/04/20 00:39:20;;;;;;;5.90;3.13;;;;;;;;;;4988204;28;20033;-70
2022/04/20 00:42:05;;;;;;;5.85;3.40;;;;;;;;;;4973577;28;20030;-71
2022/04/20 00:44:50;;;;;;;5.03;3.83;;;;;;;;;;4993384;28;20041;-73
2022/04/20 00:47:36;;;;;;;6.13;3.17;;;;;;;;;;4997275;28;20037;-69
2022/04/20 00:50:22;;;;;;;7.75;3.17;;;;;;;;;;5000111;28;20037;-69
2022/04/20 00:53:07;;;;;;;5.97;3.53;;;;;;;;;;4984015;28;20030;-69
2022/04/20 00:55:53;;;;;;;5.00;3.03;;;;;;;;;;4967566;28;20066;-76
2022/04/20 00:58:39;;;;;;;7.30;2.95;;;;;;;;;;4984653;28;20027;-69
2022/04/20 01:01:26;;;;;;;5.47;2.83;;;;;;;;;;4980952;28;20026;-70
2022/04/20 01:04:12;;;;;;;6.03;3.00;;;;;;;;;;4985545;28;20114;-71
2022/04/20 01:07:09;;;;;;;5.50;3.55;;;;;;;;;;4980993;28;20035;-72
2022/04/20 01:09:54;;;;;;;7.28;3.25;;;;;;;;;;4997368;28;20486;-72
2022/04/20 01:12:43;;;;;;;9.45;3.75;;;;;;;;;;4987501;28;20485;-71
2022/04/20 01:15:29;;;;;;;6.40;3.20;;;;;;;;;;4999474;28;20030;-71
2022/04/20 01:18:15;;;;;;;6.13;3.17;;;;;;;;;;4984110;28;20348;-68
2022/04/20 01:21:01;;;;;;;5.30;2.83;;;;;;;;;;4974346;28;20050;-67
2022/04/20 01:23:46;;;;;;;6.10;3.15;;;;;;;;;;4982933;28;20061;-68
2022/04/20 01:26:32;;;;;;;6.38;3.50;;;;;;;;;;4972928;28;20035;-69
2022/04/20 01:29:19;;;;;;;6.38;3.38;;;;;;;;;;4980807;28;20026;-65
2022/04/20 01:32:04;;;;;;;5.43;3.05;;;;;;;;;;4997162;28;20034;-66
2022/04/20 01:34:51;;;;;;;4.60;3.22;;;;;;;;;;4995638;28;20026;-70
2022/04/20 01:37:36;;;;;;;5.47;3.40;;;;;;;;;;4997975;28;20489;-73
2022/04/20 01:40:22;;;;;;;6.43;3.35;;;;;;;;;;4997600;28;20034;-72
2022/04/20 01:43:07;;;;;;;6.47;3.13;;;;;;;;;;4989241;28;20035;-71
2022/04/20 01:45:52;;;;;;;5.93;3.40;;;;;;;;;;4995796;28;20125;-71
2022/04/20 01:48:38;;;;;;;6.78;3.60;;;;;;;;;;4980326;28;20113;-71
2022/04/20 01:54:27;;;;;;;5.10;3.45;;;;;;;;;;4984926;28;20385;-70
2022/04/20 01:57:12;;;;;;;8.10;3.63;;;;;;;;;;4998485;28;20022;-68
2022/04/20 01:59:58;;;;;;;5.88;3.83;;;;;;;;;;4995086;28;20525;-70
2022/04/20 02:02:43;;;;;;;4.88;3.20;;;;;;;;;;4969733;28;20494;-70
2022/04/20 02:05:28;;;;;;;7.80;3.25;;;;;;;;;;4998188;28;20066;-69
2022/04/20 02:08:13;;;;;;;5.88;3.20;;;;;;;;;;4996804;28;20048;-70
2022/04/20 02:10:59;;;;;;;6.70;3.72;;;;;;;;;;4998015;28;20441;-78
2022/04/20 02:13:44;;;;;;;5.85;3.45;;;;;;;;;;4999901;28;20022;-77
2022/04/20 02:16:29;;;;;;;6.43;3.33;;;;;;;;;;4972075;28;20680;-78
2022/04/20 02:19:14;;;;;;;6.07;2.97;;;;;;;;;;4998706;28;20052;-78
2022/04/20 02:22:00;;;;;;;5.55;3.45;;;;;;;;;;5000230;28;20441;-77
2022/04/20 02:24:45;;;;;;;9.07;4.00;;;;;;;;;;4969417;28;20092;-76
2022/04/20 02:27:30;;;;;;;7.38;3.67;;;;;;;;;;4999090;28;20033;-72
2022/04/20 02:30:16;;;;;;;8.45;3.30;;;;;;;;;;4997333;28;20069;-72
2022/04/20 02:33:01;;;;;;;6.70;3.08;;;;;;;;;;4982962;28;20433;-70
2022/04/20 02:35:46;;;;;;;7.00;3.30;;;;;;;;;;4991436;28;20034;-71
2022/04/20 02:38:31;;;;;;;5.05;3.33;;;;;;;;;;4981386;28;20026;-72
2022/04/20 02:41:17;;;;;;;6.57;3.60;;;;;;;;;;4995035;28;20417;-74
2022/04/20 02:44:03;;;;;;;10.15;3.70;;;;;;;;;;4986736;28;20129;-70
2022/04/20 02:46:48;;;;;;;5.85;3.28;;;;;;;;;;4981805;28;20658;-70
2022/04/20 02:49:35;;;;;;;6.93;3.40;;;;;;;;;;4995645;28;20449;-73
2022/04/20 02:52:22;;;;;;;6.78;3.83;;;;;;;;;;4992669;28;20077;-71
2022/04/20 02:55:07;;;;;;;5.72;4.00;;;;;;;;;;4998538;28;20101;-70
2022/04/20 02:57:52;;;;;;;6.18;3.90;;;;;;;;;;4984144;28;20026;-71
2022/04/20 03:00:38;;;;;;;5.72;3.40;;;;;;;;;;4995130;28;20034;-69
2022/04/20 03:03:23;;;;;;;5.85;3.50;;;;;;;;;;4993007;28;20037;-71
2022/04/20 03:06:08;;;;;;;6.10;3.30;;;;;;;;;;4966953;28;20166;-66
2022/04/20 03:08:54;;;;;;;6.03;3.50;;;;;;;;;;4980152;28;20045;-69
2022/04/20 03:11:40;;;;;;;6.50;3.58;;;;;;;;;;4985357;28;20038;-66
2022/04/20 03:14:25;;;;;;;8.43;3.72;;;;;;;;;;4984735;28;20030;-67
2022/04/20 03:17:12;;;;;;;5.63;3.95;;;;;;;;;;4970148;28;20062;-66
2022/04/20 03:19:57;;;;;;;6.25;3.80;;;;;;;;;;4984605;28;20055;-68
2022/04/20 03:22:42;;;;;;;9.10;3.90;;;;;;;;;;4992401;28;20482;-68
2022/04/20 03:25:27;;;;;;;8.73;4.15;;;;;;;;;;4991165;28;20549;-70
2022/04/20 03:28:13;;;;;;;6.50;3.60;;;;;;;;;;4997976;28;20026;-70
2022/04/20 03:30:59;;;;;;;6.75;3.85;;;;;;;;;;4985581;28;20544;-71
2022/04/20 03:33:44;;;;;;;9.75;3.72;;;;;;;;;;4988392;28;20031;-70
2022/04/20 03:36:30;;;;;;;10.20;4.35;;;;;;;;;;4996545;28;20105;-69
2022/04/20 03:39:16;;;;;;;5.63;3.42;;;;;;;;;;4967771;28;20030;-70
2022/04/20 03:42:01;;;;;;;10.40;4.18;;;;;;;;;;4999314;28;20046;-69
2022/04/20 03:44:46;;;;;;;6.15;3.72;;;;;;;;;;4983049;28;20038;-77
2022/04/20 03:47:32;;;;;;;7.40;3.72;;;;;;;;;;4996729;28;20382;-77
2022/04/20 03:50:17;;;;;;;8.10;3.80;;;;;;;;;;4999604;28;20026;-77
2022/04/20 03:53:03;;;;;;;5.95;3.78;;;;;;;;;;4987962;28;20030;-77
2022/04/20 03:55:48;;;;;;;5.68;3.63;;;;;;;;;;4982350;28;20153;-76
2022/04/20 03:58:34;;;;;;;6.28;4.00;;;;;;;;;;4984811;28;20698;-72
2022/04/20 04:01:19;;;;;;;8.55;3.53;;;;;;;;;;4988897;28;20189;-68
2022/04/20 04:04:05;;;;;;;5.15;3.47;;;;;;;;;;4997463;28;20030;-67
2022/04/20 04:06:50;;;;;;;9.23;4.10;;;;;;;;;;4988315;28;20049;-67
2022/04/20 04:09:38;;;;;;;7.60;3.92;;;;;;;;;;4973333;28;20077;-68
2022/04/20 04:12:26;;;;;;;6.82;4.13;;;;;;;;;;4988265;28;20034;-66
2022/04/20 04:15:11;;;;;;;6.72;3.92;;;;;;;;;;5000629;28;20026;-66
2022/04/20 04:18:00;;;;;;;5.70;3.45;;;;;;;;;;5000455;28;20105;-78
2022/04/20 04:20:45;;;;;;;11.95;4.70;;;;;;;;;;4999780;28;20490;-66
2022/04/20 04:23:30;;;;;;;10.23;4.35;;;;;;;;;;4989620;28;20030;-66
2022/04/20 04:26:15;;;;;;;6.50;3.65;;;;;;;;;;5000702;28;20030;-66
2022/04/20 04:29:01;;;;;;;7.53;4.03;;;;;;;;;;4984909;28;20042;-67
2022/04/20 04:31:46;;;;;;;6.57;4.22;;;;;;;;;;5001552;28;20029;-66
2022/04/20 04:34:32;;;;;;;7.40;3.85;;;;;;;;;;4969104;28;20474;-69
2022/04/20 04:37:18;;;;;;;7.15;4.07;;;;;;;;;;4973160;28;20037;-77
2022/04/20 04:40:03;;;;;;;6.20;4.18;;;;;;;;;;4983585;28;20033;-68
2022/04/20 04:42:49;;;;;;;10.85;4.72;;;;;;;;;;4984622;28;20035;-65
2022/04/20 04:48:41;;;;;;;7.88;3.75;;;;;;;;;;4998363;28;20093;-66
2022/04/20 04:51:27;;;;;;;9.57;4.30;;;;;;;;;;4988163;28;20422;-68
2022/04/20 04:54:12;;;;;;;7.53;4.55;;;;;;;;;;5002743;28;20077;-78
2022/04/20 04:56:57;;;;;;;5.95;4.05;;;;;;;;;;4984158;28;20089;-69
2022/04/20 04:59:43;;;;;;;7.30;4.30;;;;;;;;;;4984627;28;20030;-70
2022/04/20 05:02:28;;;;;;;6.30;4.00;;;;;;;;;;4981997;28;20026;-68
2022/04/20 05:05:13;;;;;;;6.10;4.13;;;;;;;;;;4998834;28;20034;-68
2022/04/20 05:07:58;;;;;;;8.48;4.72;;;;;;;;;;4996732;28;20371;-68
2022/04/20 05:10:43;;;;;;;8.45;4.50;;;;;;;;;;4986771;28;20261;-68
2022/04/20 05:13:29;;;;;;;7.53;4.00;;;;;;;;;;4996285;28;20446;-70
2022/04/20 05:16:14;;;;;;;6.80;4.53;;;;;;;;;;4971747;28;20113;-69
2022/04/20 05:18:59;;;;;;;7.35;4.35;;;;;;;;;;4979711;28;20053;-69
2022/04/20 05:21:44;;;;;;;9.07;4.85;;;;;;;;;;4982445;28;20069;-69
2022/04/20 05:24:30;;;;;;;6.50;3.83;;;;;;;;;;4998372;28;20033;-69
2022/04/20 05:27:15;;;;;;;7.72;4.80;;;;;;;;;;4971224;28;20405;-71
2022/04/20 05:30:01;;;;;;;8.35;5.10;;;;;;;;;;4987090;28;20066;-72
2022/04/20 05:32:46;;;;;;;7.25;4.22;;;;;;;;;;4986781;28;20027;-66
2022/04/20 05:35:31;;;;;;;6.53;3.90;;;;;;;;;;4986644;28;20039;-70
2022/04/20 05:44:25;;;;;;;8.00;4.95;;;;;;;;;;4976359;28;20022;-73
2022/04/20 05:47:10;;;;;;;9.35;4.93;;;;;;;;;;4998287;28;20065;-71
2022/04/20 05:49:55;;;;;;;11.63;4.80;;;;;;;;;;4977577;28;20092;-73
2022/04/20 05:52:40;;;;;;;7.45;4.28;;;;;;;;;;4989000;28;20018;-80
2022/04/20 05:55:26;;;;;;;12.07;4.55;;;;;;;;;;4994324;28;20021;-74
2022/04/20 05:58:11;;;;;;;9.65;5.60;;;;;;;;;;4986351;28;20410;-74
2022/04/20 06:00:56;;;;;;;11.88;4.80;;;;;;;;;;4986565;28;20061;-74
2022/04/20 06:03:41;;;;;;;10.20;4.05;;;;;;;;;;4977371;28;20141;-73
2022/04/20 06:06:27;;;;;;;7.57;4.45;;;;;;;;;;4990798;28;20430;-77
2022/04/20 06:09:12;;;;;;;10.32;4.50;;;;;;;;;;4969850;28;20045;-82
2022/04/20 06:11:58;;;;;;;7.28;4.25;;;;;;;;;;4980288;28;20030;-66
2022/04/20 06:14:43;;;;;;;8.40;4.50;;;;;;;;;;4995382;28;20093;-66
2022/04/20 06:17:28;;;;;;;8.93;4.25;;;;;;;;;;4981598;28;20608;-66
2022/04/20 06:20:13;;;;;;;5.63;3.67;;;;;;;;;;4981361;28;20039;-68
2022/04/20 06:22:59;;;;;;;10.57;4.38;;;;;;;;;;4975348;28;22325;-70
2022/04/20 06:25:44;;;;;;;7.97;3.78;;;;;;;;;;4966306;28;20046;-70
2022/04/20 06:28:29;;;;;;;6.15;3.78;;;;;;;;;;4994193;28;20018;-70
2022/04/20 06:31:15;;;;;;;5.63;3.85;;;;;;;;;;4980444;28;20609;-67
2022/04/20 06:34:02;;;;;;;6.15;3.35;;;;;;;;;;4966197;28;20034;-63
2022/04/20 06:36:47;;;;;;;6.13;3.55;;;;;;;;;;4994646;28;20041;-63
2022/04/20 06:39:32;;;;;;;8.25;3.97;;;;;;;;;;4982059;28;20018;-65
2022/04/20 06:42:18;;;;;;;5.22;3.40;;;;;;;;;;4982279;28;20030;-67
2022/04/20 06:45:03;;;;;;;5.80;3.55;;;;;;;;;;4966675;28;20097;-69
2022/04/20 06:47:49;;;;;;;6.45;3.42;;;;;;;;;;4993696;28;20035;-74
2022/04/20 06:50:34;;;;;;;4.60;3.25;;;;;;;;;;4990220;28;20070;-68
2022/04/20 06:59:27;;;;;;;6.00;3.40;;;;;;;;;;5001459;28;20477;-68
2022/04/20 07:02:13;;;;;;;4.18;2.67;;;;;;;;;;4963499;28;20015;-67
2022/04/20 07:04:58;;;;;;;4.00;3.05;;;;;;;;;;4976462;28;20506;-76
2022/04/20 07:07:43;;;;;;;4.07;3.30;;;;;;;;;;4992244;28;20060;-70
2022/04/20 07:10:28;;;;;;;4.30;3.10;;;;;;;;;;4999690;28;20735;-70
2022/04/20 07:13:14;;;;;;;6.22;3.33;;;;;;;;;;4995656;28;20421;-70
2022/04/20 07:16:00;;;;;;;4.20;2.65;;;;;;;;;;4998933;28;20374;-69
2022/04/20 07:18:45;;;;;;;5.97;3.00;;;;;;;;;;4998274;28;20088;-69
2022/04/20 07:21:31;;;;;;;4.22;3.13;;;;;;;;;;4977551;28;20632;-67
2022/04/20 07:24:16;;;;;;;6.20;3.13;;;;;;;;;;4984859;28;20498;-69
2022/04/20 07:27:01;;;;;;;6.32;3.22;;;;;;;;;;4990106;28;20041;-71
2022/04/20 07:29:47;;;;;;;5.93;3.20;;;;;;;;;;4980809;28;20026;-75
2022/04/20 07:32:32;;;;;;;5.00;3.10;;;;;;;;;;4987024;28;20381;-70
2022/04/20 07:35:17;;;;;;;9.02;3.30;;;;;;;;;;4981749;28;20047;-70
2022/04/20 07:38:03;;;;;;;8.38;3.53;;;;;;;;;;4975902;28;20027;-69
2022/04/20 07:40:48;;;;;;;7.70;3.50;;;;;;;;;;4970456;28;20433;-75
2022/04/20 07:43:33;;;;;;;4.00;2.50;;;;;;;;;;4973575;28;20125;-73
2022/04/20 07:46:20;;;;;;;5.57;3.42;;;;;;;;;;5005783;28;20077;-72
2022/04/20 07:50:18;;;;;;;4.93;2.90;;;;;;;;;;4992667;28;20481;-72
2022/04/20 07:52:10;;;;;;;4.78;3.10;;;;;;;;;;4990219;28;20030;-73
2022/04/20 07:54:56;;;;;;;6.22;3.63;;;;;;;;;;4996437;28;20037;-72
2022/04/20 07:57:45;;;;;;;5.15;3.50;;;;;;;;;;4998961;28;20050;-64
2022/04/20 08:00:30;;;;;;;5.32;3.17;;;;;;;;;;4997829;28;20018;-69
2022/04/20 08:03:16;;;;;;;6.38;3.38;;;;;;;;;;4980531;28;20031;-71
2022/04/20 08:06:01;;;;;;;7.68;3.40;;;;;;;;;;4976393;28;20053;-73
2022/04/20 08:08:47;;;;;;;4.97;2.90;;;;;;;;;;4979703;28;20065;-71
2022/04/20 08:11:32;;;;;;;5.97;3.70;;;;;;;;;;4988904;28;20483;-70
2022/04/20 08:14:18;;;;;;;6.18;3.10;;;;;;;;;;4991516;28;20034;-72
2022/04/20 08:17:03;;;;;;;3.75;2.85;;;;;;;;;;4970550;28;20027;-73
2022/04/20 08:19:48;;;;;;;4.97;3.30;;;;;;;;;;4969679;28;20053;-67
2022/04/20 08:22:39;;;;;;;6.00;3.42;;;;;;;;;;4972590;28;20034;-65
2022/04/20 08:25:25;;;;;;;5.82;3.42;;;;;;;;;;4986974;28;20030;-64
2022/04/20 08:28:10;;;;;;;7.45;3.30;;;;;;;;;;4993760;28;20022;-62
2022/04/20 08:30:56;;;;;;;7.53;3.38;;;;;;;;;;4984285;28;20061;-67
2022/04/20 08:33:44;;;;;;;6.88;3.83;;;;;;;;;;4994574;28;20414;-63
2022/04/20 08:36:29;;;;;;;6.53;3.30;;;;;;;;;;4998937;28;20030;-67
2022/04/20 08:39:14;;;;;;;20.02;3.72;;;;;;;;;;4995674;28;20466;-73
2022/04/20 08:42:00;;;;;;;4.68;3.78;;;;;;;;;;4996837;28;20049;-71
2022/04/20 08:44:50;;;;;;;9.02;4.13;;;;;;;;;;4995528;28;20052;-73
2022/04/20 08:47:39;;;;;;;4.63;3.03;;;;;;;;;;4978006;28;20042;-71
2022/04/20 08:50:25;;;;;;;5.75;3.45;;;;;;;;;;4995245;28;20026;-74
2022/04/20 08:53:11;;;;;;;10.57;4.03;;;;;;;;;;4982260;28;20031;-67
2022/04/20 08:59:01;;;;;;;4.80;3.40;;;;;;;;;;4998619;28;20026;-70
2022/04/20 09:01:47;;;;;;;5.53;3.28;;;;;;;;;;4985907;28;20523;-64
2022/04/20 09:04:32;;;;;;;7.13;3.78;;;;;;;;;;4999758;28;20038;-64
2022/04/20 09:07:18;;;;;;;6.05;3.42;;;;;;;;;;4992688;28;20622;-63
2022/04/20 09:10:04;;;;;;;5.00;3.33;;;;;;;;;;4983904;28;20475;-69
2022/04/20 09:13:08;;;;;;;7.03;3.53;;;;;;;;;;4985803;28;20062;-70
2022/04/20 09:15:54;;;;;;;5.60;3.10;;;;;;;;;;4978925;28;20114;-65
2022/04/20 09:18:41;;;;;;;4.88;2.90;;;;;;;;;;4997105;28;20072;-64
2022/04/20 09:21:30;;;;;;;7.95;3.58;;;;;;;;;;4994630;28;20038;-65
2022/04/20 09:24:16;;;;;;;;;;;;;;;;;;4983413;28;20057;-65
2022/04/20 09:27:01;;;;;;;6.43;3.38;;;;;;;;;;4987968;28;19920;-69
2022/04/20 09:29:52;;;;;;;5.10;3.10;;;;;;;;;;4995835;28;20110;-73
2022/04/20 09:32:38;;;;;;;4.40;2.63;;;;;;;;;;4998128;28;20492;-65
2022/04/20 09:35:24;;;;;;;5.38;2.72;;;;;;;;;;4985957;28;20034;-64
2022/04/20 09:38:09;;;;;;;5.50;2.83;;;;;;;;;;4988368;28;20031;-64
2022/04/20 09:41:04;;;;;;;5.70;2.70;;;;;;;;;;5000054;28;20034;-63
2022/04/20 09:44:05;;;;;;;3.85;2.53;;;;;;;;;;4996536;28;20037;-65
2022/04/20 09:49:56;;;;;;;4.65;2.70;;;;;;;;;;4981284;28;20022;-78
2022/04/20 09:52:43;;;;;;;4.18;2.80;;;;;;;;;;4996198;28;20030;-67
2022/04/20 09:55:28;;;;;;;5.78;2.67;;;;;;;;;;4997011;28;20034;-65
2022/04/20 09:58:13;;;;;;;3.65;2.35;;;;;;;;;;4974428;28;20038;-65
2022/04/20 10:00:59;;;;;;;4.40;2.78;;;;;;;;;;4982642;28;20050;-66
2022/04/20 10:03:52;;;;;;;3.67;2.72;;;;;;;;;;4998731;28;20034;-64
2022/04/20 10:06:41;;;;;;;4.95;2.70;;;;;;;;;;4996681;28;20069;-73
2022/04/20 10:09:26;;;;;;;4.13;3.13;;;;;;;;;;4999367;28;20077;-66
2022/04/20 10:12:14;;;;;;;4.25;2.67;;;;;;;;;;4999295;28;20045;-73
2022/04/20 10:18:14;;;;;;;5.60;2.78;;;;;;;;;;5002373;28;20561;-73
2022/04/20 10:21:00;;;;;;;3.50;2.60;;;;;;;;;;4989487;28;20042;-70
2022/04/20 10:23:47;;;;;;;5.18;2.63;;;;;;;;;;4979441;28;20110;-72
2022/04/20 10:26:34;;;;;;;3.83;2.65;;;;;;;;;;4982271;28;20124;-67
2022/04/20 10:29:30;;;;;;;4.63;2.85;;;;;;;;;;4990532;28;20502;-78
2022/04/20 10:32:26;;;;;;;3.08;2.53;;;;;;;;;;4983106;28;20486;-77
2022/04/20 10:35:11;;;;;;;5.15;3.10;;;;;;;;;;4989503;28;20414;-78
2022/04/20 10:38:07;;;;;;;4.50;2.60;;;;;;;;;;4995862;28;20038;-69
2022/04/20 10:40:59;;;;;;;5.80;3.05;;;;;;;;;;4994496;28;20027;-72
2022/04/20 10:43:45;;;;;;;7.65;2.67;;;;;;;;;;4981023;28;20042;-57
2022/04/20 10:46:30;;;;;;;5.43;2.78;;;;;;;;;;4964772;28;20038;-67
2022/04/20 10:49:16;;;;;;;4.68;2.33;;;;;;;;;;4988741;28;20590;-66
2022/04/20 10:52:21;;;;;;;3.92;3.15;;;;;;;;;;4981361;28;20023;-68
2022/04/20 10:55:06;;;;;;;7.35;3.15;;;;;;;;;;4995884;28;20030;-68
2022/04/20 10:57:53;;;;;;;4.15;2.95;;;;;;;;;;4992849;28;20026;-67
2022/04/20 11:00:38;;;;;;;4.20;2.80;;;;;;;;;;4993661;28;20026;-73
2022/04/20 11:03:24;;;;;;;5.55;3.00;;;;;;;;;;4993926;28;20027;-53
2022/04/20 11:06:09;;;;;;;4.70;2.33;;;;;;;;;;4980706;28;20155;-71
2022/04/20 11:08:58;;;;;;;4.10;2.80;;;;;;;;;;4992577;28;20113;-67
2022/04/20 11:21:13;;;;;;;5.55;2.78;;;;;;;;;;4978378;28;20054;-71
2022/04/20 11:24:03;;;;;;;6.57;2.90;;;;;;;;;;5000473;28;20022;-61
2022/04/20 11:26:49;;;;;;;4.28;2.10;;;;;;;;;;4994999;28;20043;-60
2022/04/20 11:29:35;;;;;;;4.70;2.65;;;;;;;;;;4979835;28;20494;-61
2022/04/20 11:32:20;;;;;;;5.72;2.60;;;;;;;;;;4996930;28;20088;-59
2022/04/20 11:35:11;;;;;;;4.68;3.05;;;;;;;;;;4977379;28;20035;-59
2022/04/20 11:37:57;;;;;;;5.68;2.53;;;;;;;;;;4990771;28;20029;-59
2022/04/20 11:40:42;;;;;;;4.18;2.90;;;;;;;;;;4978443;28;20455;-70
2022/04/20 11:43:27;;;;;;;3.63;2.45;;;;;;;;;;4988928;28;20076;-59
2022/04/20 11:46:14;;;;;;;4.63;2.83;;;;;;;;;;4993078;28;20035;-60
2022/04/20 11:48:59;;;;;;;5.15;3.10;;;;;;;;;;4966093;28;20023;-60
2022/04/20 11:51:46;;;;;;;4.65;2.95;;;;;;;;;;4984894;28;20038;-59
2022/04/20 11:54:32;;;;;;;7.15;4.10;;;;;;;;;;4978341;28;20026;-59
2022/04/20 11:57:18;;;;;;;6.03;3.20;;;;;;;;;;4993717;28;21292;-59
2022/04/20 12:00:04;;;;;;;5.32;3.08;;;;;;;;;;4979303;28;20045;-73
2022/04/20 12:02:49;;;;;;;4.32;2.85;;;;;;;;;;4999058;28;20026;-67
2022/04/20 12:05:34;;;;;;;4.05;3.03;;;;;;;;;;4999364;28;20051;-70
2022/04/20 12:08:23;;;;;;;4.30;2.75;;;;;;;;;;4999460;28;20007;-72
2022/04/20 12:11:09;;;;;;;4.70;2.70;;;;;;;;;;4987044;28;20026;-68
2022/04/20 12:13:55;;;;;;;4.68;2.97;;;;;;;;;;4993896;28;20038;-69
2022/04/20 12:16:41;;;;;;;6.43;3.25;;;;;;;;;;4994472;28;20445;-72
2022/04/20 12:19:30;;;;;;;6.18;3.05;;;;;;;;;;4969482;28;20050;-70
2022/04/20 12:22:19;;;;;;;4.30;2.83;;;;;;;;;;5000023;28;20069;-73
2022/04/20 12:25:05;;;;;;;6.40;2.88;;;;;;;;;;4986671;28;20045;-67
2022/04/20 12:27:51;;;;;;;5.80;3.38;;;;;;;;;;4999625;28;20027;-70
2022/04/20 12:30:47;;;;;;;4.32;2.70;;;;;;;;;;4996908;28;20109;-69
2022/04/20 12:33:32;;;;;;;4.85;2.97;;;;;;;;;;4993237;28;20026;-64
2022/04/20 12:36:18;;;;;;;5.18;2.70;;;;;;;;;;4996830;28;20102;-68
2022/04/20 12:39:03;;;;;;;3.67;2.63;;;;;;;;;;4982725;28;20038;-62
2022/04/20 12:41:48;;;;;;;4.50;3.47;;;;;;;;;;4998195;28;20027;-61
2022/04/20 12:44:37;;;;;;;5.60;2.95;;;;;;;;;;4974520;28;20030;-59
2022/04/20 12:47:22;;;;;;;5.18;2.45;;;;;;;;;;4982849;28;20039;-60
2022/04/20 12:50:07;;;;;;;5.38;2.30;;;;;;;;;;4980495;28;20026;-61
2022/04/20 12:52:53;;;;;;;7.32;3.22;;;;;;;;;;4995324;28;20034;-59
2022/04/20 12:55:40;;;;;;;4.97;3.17;;;;;;;;;;4983321;28;21360;-59
2022/04/20 13:04:45;;;;;;;10.85;3.00;;;;;;;;;;4992384;28;20025;-62
2022/04/20 13:07:30;;;;;;;3.13;2.53;;;;;;;;;;4993485;28;20458;-61
2022/04/20 13:10:16;;;;;;;4.32;2.40;;;;;;;;;;4994426;28;20033;-62
2022/04/20 13:13:01;;;;;;;4.10;2.30;;;;;;;;;;4994465;28;20461;-72
2022/04/20 13:15:46;;;;;;;5.20;2.22;;;;;;;;;;4981316;28;20070;-60
2022/04/20 13:18:31;;;;;;;7.22;3.45;;;;;;;;;;4995515;28;20034;-62
2022/04/20 13:21:17;;;;;;;4.65;2.47;;;;;;;;;;4993872;28;20038;-59
2022/04/20 13:24:04;;;;;;;5.72;3.20;;;;;;;;;;4968463;28;20101;-60
2022/04/20 13:29:53;;;;;;;3.17;2.40;;;;;;;;;;4997917;28;20030;-59
2022/04/20 13:32:38;;;;;;;5.35;2.78;;;;;;;;;;4993561;28;20031;-57
2022/04/20 13:35:23;;;;;;;5.32;3.03;;;;;;;;;;4992865;28;20482;-56
2022/04/20 13:38:10;;;;;;;5.15;2.40;;;;;;;;;;4978827;28;20026;-53
2022/04/20 13:40:55;;;;;;;3.50;2.40;;;;;;;;;;4986474;28;20030;-59
2022/04/20 13:43:40;;;;;;;3.85;2.30;;;;;;;;;;4984023;28;20046;-58
2022/04/20 13:46:26;;;;;;;5.32;2.60;;;;;;;;;;4995112;28;20129;-56
2022/04/20 13:49:12;;;;;;;4.90;2.58;;;;;;;;;;4976374;28;20057;-75
2022/04/20 13:51:57;;;;;;;5.25;2.83;;;;;;;;;;4979902;28;20393;-67
2022/04/20 13:54:42;;;;;;;6.10;2.70;;;;;;;;;;5003645;28;20034;-66
2022/04/20 13:57:27;;;;;;;4.57;2.72;;;;;;;;;;4982599;28;20054;-68
2022/04/20 14:00:13;;;;;;;4.82;2.88;;;;;;;;;;4981620;28;20026;-67
2022/04/20 14:02:58;;;;;;;3.92;2.40;;;;;;;;;;4998019;28;20076;-65
2022/04/20 14:05:44;;;;;;;3.95;2.75;;;;;;;;;;4996951;28;20093;-62
2022/04/20 14:08:29;;;;;;;3.97;2.35;;;;;;;;;;4992866;28;20371;-68
2022/04/20 14:11:14;;;;;;;3.70;2.80;;;;;;;;;;4984753;28;20026;-69
2022/04/20 14:14:01;;;;;;;6.97;2.92;;;;;;;;;;4998714;28;20113;-64
2022/04/20 14:16:48;;;;;;;5.78;2.72;;;;;;;;;;4998485;28;20038;-66
2022/04/20 14:19:33;;;;;;;4.65;2.50;;;;;;;;;;4990737;28;20047;-67
2022/04/20 14:22:18;;;;;;;4.68;3.38;;;;;;;;;;4995879;28;20038;-72
2022/04/20 14:34:15;;;;;;;5.00;2.88;;;;;;;;;;4977592;28;20054;-55
2022/04/20 14:37:01;;;;;;;3.80;2.60;;;;;;;;;;4987671;28;20387;-56
2022/04/20 14:39:46;;;;;;;3.90;2.63;;;;;;;;;;4992621;28;20469;-54
2022/04/20 14:42:32;;;;;;;3.95;2.78;;;;;;;;;;4984600;28;20089;-61
2022/04/20 14:45:18;;;;;;;6.72;3.80;;;;;;;;;;4985690;28;20041;-68
2022/04/20 14:48:04;;;;;;;5.00;3.10;;;;;;;;;;4984691;28;20236;-63
2022/04/20 14:50:50;;;;;;;3.58;2.60;;;;;;;;;;4984843;28;20070;-60
2022/04/20 14:53:36;;;;;;;4.22;2.90;;;;;;;;;;4977785;28;20114;-61
2022/04/20 14:56:21;;;;;;;6.05;2.50;;;;;;;;;;4997670;28;20137;-66
2022/04/20 14:59:07;;;;;;;3.92;2.67;;;;;;;;;;4991814;28;20046;-61
2022/04/20 15:01:52;;;;;;;5.03;2.80;;;;;;;;;;4995667;28;20267;-69
2022/04/20 15:04:37;;;;;;;4.47;2.63;;;;;;;;;;4992318;28;20118;-62
2022/04/20 15:07:22;;;;;;;4.55;2.92;;;;;;;;;;4978475;28;20110;-64
2022/04/20 15:10:08;;;;;;;4.45;2.75;;;;;;;;;;4973759;28;20026;-60
2022/04/20 15:12:55;;;;;;;6.35;2.63;;;;;;;;;;4981005;28;20378;-60
2022/04/20 15:15:40;;;;;;;6.88;2.35;;;;;;;;;;4982638;28;20026;-62
2022/04/20 15:18:25;;;;;;;3.97;2.40;;;;;;;;;;4979495;28;20410;-61
2022/04/20 15:21:10;;;;;;;5.18;2.95;;;;;;;;;;4989258;28;20035;-66
2022/04/20 15:23:56;;;;;;;5.25;2.88;;;;;;;;;;4983006;28;20030;-63
2022/04/20 15:26:42;;;;;;;3.50;2.25;;;;;;;;;;4984183;28;20037;-61
2022/04/20 15:29:27;;;;;;;3.50;2.55;;;;;;;;;;4988695;28;20026;-63
2022/04/20 15:32:12;;;;;;;4.05;2.85;;;;;;;;;;4986122;28;20390;-61
2022/04/20 15:34:58;;;;;;;6.03;2.80;;;;;;;;;;4987561;28;20031;-60
2022/04/20 15:37:43;;;;;;;6.95;2.60;;;;;;;;;;5003633;28;20034;-61
2022/04/20 15:40:29;;;;;;;4.97;2.90;;;;;;;;;;4985141;28;20069;-60
2022/04/20 15:43:17;;;;;;;4.40;3.00;;;;;;;;;;4989968;28;20029;-58
2022/04/20 15:46:05;;;;;;;4.47;2.67;;;;;;;;;;5000573;28;20045;-58
2022/04/20 15:48:53;;;;;;;3.92;2.72;;;;;;;;;;5002867;28;20111;-56
2022/04/20 15:51:38;;;;;;;4.25;2.70;;;;;;;;;;4977549;28;20030;-56
2022/04/20 15:54:24;;;;;;;4.43;2.97;;;;;;;;;;4996836;28;20112;-57
2022/04/20 16:00:17;;;;;;;5.13;3.03;;;;;;;;;;4993057;28;20105;-61
2022/04/20 16:03:03;;;;;;;4.63;2.78;;;;;;;;;;4985801;28;20027;-60
2022/04/20 16:05:51;;;;;;;5.65;2.78;;;;;;;;;;4977225;28;20129;-60
2022/04/20 16:08:36;;;;;;;6.40;2.95;;;;;;;;;;4962700;28;20026;-61
2022/04/20 16:11:22;;;;;;;6.53;3.15;;;;;;;;;;4972435;28;20097;-61
2022/04/20 16:14:08;;;;;;;3.85;2.85;;;;;;;;;;4999488;28;20104;-64
2022/04/20 16:16:54;;;;;;;3.55;2.65;;;;;;;;;;4983101;28;20514;-79
2022/04/20 16:19:39;;;;;;;6.57;2.85;;;;;;;;;;4975281;28;20042;-70
2022/04/20 16:22:24;;;;;;;6.38;3.03;;;;;;;;;;4998676;28;20045;-70
2022/04/20 16:25:10;;;;;;;3.95;2.72;;;;;;;;;;5002994;28;20113;-71
2022/04/20 16:27:56;;;;;;;5.07;3.00;;;;;;;;;;4974255;28;20142;-68
2022/04/20 16:30:42;;;;;;;6.38;3.50;;;;;;;;;;4981455;28;20030;-71
2022/04/20 16:33:27;;;;;;;5.20;3.22;;;;;;;;;;4971443;28;20027;-66
2022/04/20 16:36:12;;;;;;;5.72;3.15;;;;;;;;;;4997208;28;20033;-80
2022/04/20 16:38:58;;;;;;;4.63;3.20;;;;;;;;;;5001827;28;20241;-79
2022/04/20 16:41:43;;;;;;;8.02;3.20;;;;;;;;;;5002007;28;20497;-79
2022/04/20 16:44:28;;;;;;;7.25;3.05;;;;;;;;;;4994191;28;20019;-80
2022/04/20 16:47:14;;;;;;;5.38;3.47;;;;;;;;;;4982786;28;20492;-80
2022/04/20 16:49:59;;;;;;;7.20;3.47;;;;;;;;;;4997222;28;20026;-80
2022/04/20 16:52:45;;;;;;;6.55;3.72;;;;;;;;;;5006140;28;20374;-63
2022/04/20 16:55:30;;;;;;;4.80;3.42;;;;;;;;;;4984362;28;20532;-72
2022/04/20 16:58:15;;;;;;;4.32;3.10;;;;;;;;;;4998546;28;20124;-72
2022/04/20 17:01:00;;;;;;;6.53;3.35;;;;;;;;;;4971079;28;20026;-74
2022/04/20 17:03:46;;;;;;;4.28;2.90;;;;;;;;;;4967580;28;20485;-71
2022/04/20 17:06:31;;;;;;;4.10;2.95;;;;;;;;;;4976882;28;20524;-73
2022/04/20 17:09:16;;;;;;;3.92;3.00;;;;;;;;;;4996828;28;20019;-72
2022/04/20 17:12:02;;;;;;;4.13;2.67;;;;;;;;;;4991008;28;20414;-82
2022/04/20 17:14:47;;;;;;;4.88;2.75;;;;;;;;;;4975214;28;20035;-64
2022/04/20 17:17:33;;;;;;;6.18;2.70;;;;;;;;;;4998586;28;20025;-64
2022/04/20 17:26:35;;;;;;;3.92;3.00;;;;;;;;;;4985028;28;20039;-65
2022/04/20 17:29:21;;;;;;;5.25;3.42;;;;;;;;;;4991443;28;20430;-74
2022/04/20 17:32:07;;;;;;;6.53;3.45;;;;;;;;;;4992212;28;20093;-75
2022/04/20 17:37:56;;;;;;;5.88;3.25;;;;;;;;;;4980605;28;20558;-76
2022/04/20 17:40:41;;;;;;;4.30;2.85;;;;;;;;;;4970711;28;20112;-71
2022/04/20 17:43:26;;;;;;;5.72;3.00;;;;;;;;;;4974446;28;20096;-73